sensor_id;sensor_type;location;lat;lon;timestamp;pressure;altitude;pressure_sealevel;temperature;humidity
53900;BME280;40509;32.858;-116.858;2023-03-15T00:01:10;98139.38;;;19.64;52.62
53900;BME280;40509;32.858;-116.858;2023-03-15T00:03:41;98141.31;;;19.62;53.23
53900;BME280;40509;32.858;-116.858;2023-03-15T00:06:09;98143.94;;;19.62;53.07
53900;BME280;40509;32.858;-116.858;2023-03-15T00:08:36;98144.88;;;19.61;53.05
53900;BME280;40509;32.858;-116.858;2023-03-15T00:11:04;98145.84;;;19.60;53.38
53900;BME280;40509;32.858;-116.858;2023-03-15T00:13:32;98132.75;;;19.60;52.98
53900;BME280;40509;32.858;-116.858;2023-03-15T00:16:01;98137.97;;;19.60;53.18
53900;BME280;40509;32.858;-116.858;2023-03-15T00:18:31;98137.16;;;19.59;53.04
53900;BME280;40509;32.858;-116.858;2023-03-15T00:20:59;98142.69;;;19.56;53.10
53900;BME280;40509;32.858;-116.858;2023-03-15T00:23:26;98144.47;;;19.65;52.65
53900;BME280;40509;32.858;-116.858;2023-03-15T00:25:54;98134.13;;;19.64;52.73
53900;BME280;40509;32.858;-116.858;2023-03-15T00:28:21;98126.69;;;19.59;52.75
53900;BME280;40509;32.858;-116.858;2023-03-15T00:30:49;98138.69;;;19.62;53.02
53900;BME280;40509;32.858;-116.858;2023-03-15T00:33:16;98137.69;;;19.63;53.05
53900;BME280;40509;32.858;-116.858;2023-03-15T00:35:44;98139.38;;;19.64;52.79
53900;BME280;40509;32.858;-116.858;2023-03-15T00:38:12;98142.69;;;19.66;52.64
53900;BME280;40509;32.858;-116.858;2023-03-15T00:40:41;98146.97;;;19.67;52.86
53900;BME280;40509;32.858;-116.858;2023-03-15T00:43:09;98159.22;;;19.66;52.94
53900;BME280;40509;32.858;-116.858;2023-03-15T00:45:36;98160.34;;;19.74;52.97
53900;BME280;40509;32.858;-116.858;2023-03-15T00:48:03;98157.84;;;19.72;53.19
53900;BME280;40509;32.858;-116.858;2023-03-15T00:50:31;98148.47;;;19.69;53.12
53900;BME280;40509;32.858;-116.858;2023-03-15T00:52:58;98144.38;;;19.67;53.06
53900;BME280;40509;32.858;-116.858;2023-03-15T00:55:28;98139.22;;;19.65;52.86
53900;BME280;40509;32.858;-116.858;2023-03-15T00:57:55;98140.22;;;19.64;53.00
53900;BME280;40509;32.858;-116.858;2023-03-15T01:00:23;98146.41;;;19.63;53.18
53900;BME280;40509;32.858;-116.858;2023-03-15T01:02:51;98148.19;;;19.63;53.52
53900;BME280;40509;32.858;-116.858;2023-03-15T01:05:20;98149.97;;;19.62;53.28
53900;BME280;40509;32.858;-116.858;2023-03-15T01:07:48;98137.69;;;19.63;53.61
53900;BME280;40509;32.858;-116.858;2023-03-15T01:10:16;98144.06;;;19.60;53.51
53900;BME280;40509;32.858;-116.858;2023-03-15T01:12:43;98157.16;;;19.60;53.27
53900;BME280;40509;32.858;-116.858;2023-03-15T01:15:13;98167.50;;;19.62;53.42
53900;BME280;40509;32.858;-116.858;2023-03-15T01:17:41;98169.13;;;19.63;53.34
53900;BME280;40509;32.858;-116.858;2023-03-15T01:20:11;98170.13;;;19.62;53.39
53900;BME280;40509;32.858;-116.858;2023-03-15T01:22:39;98168.44;;;19.61;53.71
53900;BME280;40509;32.858;-116.858;2023-03-15T01:25:07;98171.06;;;19.61;53.56
53900;BME280;40509;32.858;-116.858;2023-03-15T01:27:35;98164.03;;;19.61;53.51
53900;BME280;40509;32.858;-116.858;2023-03-15T01:30:03;98158.94;;;19.60;53.49
53900;BME280;40509;32.858;-116.858;2023-03-15T01:32:32;98152.88;;;19.59;53.80
53900;BME280;40509;32.858;-116.858;2023-03-15T01:35:00;98158.94;;;19.60;53.76
53900;BME280;40509;32.858;-116.858;2023-03-15T01:37:27;98161.53;;;19.60;53.77
53900;BME280;40509;32.858;-116.858;2023-03-15T01:39:54;98162.50;;;19.59;53.71
53900;BME280;40509;32.858;-116.858;2023-03-15T01:42:22;98165.13;;;19.59;53.79
53900;BME280;40509;32.858;-116.858;2023-03-15T01:44:58;98162.50;;;19.59;53.80
53900;BME280;40509;32.858;-116.858;2023-03-15T01:47:26;98167.75;;;19.59;53.74
53900;BME280;40509;32.858;-116.858;2023-03-15T01:50:00;98154.78;;;19.57;53.56
53900;BME280;40509;32.858;-116.858;2023-03-15T01:52:32;98157.41;;;19.57;53.66
53900;BME280;40509;32.858;-116.858;2023-03-15T01:55:13;98162.78;;;19.55;53.67
53900;BME280;40509;32.858;-116.858;2023-03-15T01:58:02;98150.41;;;19.58;53.84
53900;BME280;40509;32.858;-116.858;2023-03-15T02:00:33;98141.69;;;19.57;53.44
53900;BME280;40509;32.858;-116.858;2023-03-15T02:03:08;98142.69;;;19.56;53.92
53900;BME280;40509;32.858;-116.858;2023-03-15T02:05:47;98143.50;;;19.57;53.74
53900;BME280;40509;32.858;-116.858;2023-03-15T02:08:35;98141.16;;;19.53;54.03
53900;BME280;40509;32.858;-116.858;2023-03-15T02:11:05;98147.91;;;19.56;53.41
53900;BME280;40509;32.858;-116.858;2023-03-15T02:13:33;98152.56;;;19.52;53.85
53900;BME280;40509;32.858;-116.858;2023-03-15T02:16:06;98155.06;;;19.54;53.82
53900;BME280;40509;32.858;-116.858;2023-03-15T02:18:43;98156.97;;;19.52;53.69
53900;BME280;40509;32.858;-116.858;2023-03-15T02:21:45;98154.47;;;19.50;53.83
53900;BME280;40509;32.858;-116.858;2023-03-15T02:24:40;98163.88;;;19.53;53.40
53900;BME280;40509;32.858;-116.858;2023-03-15T02:27:10;98163.06;;;19.52;53.45
53900;BME280;40509;32.858;-116.858;2023-03-15T02:29:37;98168.28;;;19.52;53.31
53900;BME280;40509;32.858;-116.858;2023-03-15T02:32:05;98169.25;;;19.51;53.41
53900;BME280;40509;32.858;-116.858;2023-03-15T02:34:33;98169.38;;;19.50;53.59
53900;BME280;40509;32.858;-116.858;2023-03-15T02:37:02;98164.97;;;19.50;53.73
53900;BME280;40509;32.858;-116.858;2023-03-15T02:39:29;98167.56;;;19.50;53.76
53900;BME280;40509;32.858;-116.858;2023-03-15T02:41:58;98167.44;;;19.52;53.50
53900;BME280;40509;32.858;-116.858;2023-03-15T02:44:38;98164.13;;;19.50;53.35
53900;BME280;40509;32.858;-116.858;2023-03-15T02:47:21;98180.66;;;19.50;53.61
53900;BME280;40509;32.858;-116.858;2023-03-15T02:49:52;98174.63;;;19.50;53.34
53900;BME280;40509;32.858;-116.858;2023-03-15T02:52:21;98183.28;;;19.50;53.56
53900;BME280;40509;32.858;-116.858;2023-03-15T02:54:49;98196.38;;;19.50;53.33
53900;BME280;40509;32.858;-116.858;2023-03-15T02:57:18;98206.16;;;19.48;53.70
53900;BME280;40509;32.858;-116.858;2023-03-15T02:59:46;98195.69;;;19.48;53.36
53900;BME280;40509;32.858;-116.858;2023-03-15T03:02:17;98192.38;;;19.46;53.44
53900;BME280;40509;32.858;-116.858;2023-03-15T03:04:45;98190.59;;;19.47;53.73
53900;BME280;40509;32.858;-116.858;2023-03-15T03:07:13;98198.19;;;19.50;53.57
53900;BME280;40509;32.858;-116.858;2023-03-15T03:09:57;98196.50;;;19.49;53.78
53900;BME280;40509;32.858;-116.858;2023-03-15T03:12:26;98194.03;;;19.47;53.47
53900;BME280;40509;32.858;-116.858;2023-03-15T03:14:53;98201.88;;;19.47;53.61
53900;BME280;40509;32.858;-116.858;2023-03-15T03:17:23;98198.44;;;19.47;53.78
53900;BME280;40509;32.858;-116.858;2023-03-15T03:19:51;98192.50;;;19.45;53.59
53900;BME280;40509;32.858;-116.858;2023-03-15T03:22:24;98186.44;;;19.44;53.73
53900;BME280;40509;32.858;-116.858;2023-03-15T03:24:51;98170.88;;;19.43;53.86
53900;BME280;40509;32.858;-116.858;2023-03-15T03:27:18;98159.56;;;19.42;53.81
53900;BME280;40509;32.858;-116.858;2023-03-15T03:29:47;98158.59;;;19.43;53.68
53900;BME280;40509;32.858;-116.858;2023-03-15T03:32:16;98156.94;;;19.42;53.68
53900;BME280;40509;32.858;-116.858;2023-03-15T03:34:43;98157.78;;;19.43;53.49
53900;BME280;40509;32.858;-116.858;2023-03-15T03:37:19;98146.47;;;19.42;53.55
53900;BME280;40509;32.858;-116.858;2023-03-15T03:39:53;98142.22;;;19.41;53.54
53900;BME280;40509;32.858;-116.858;2023-03-15T03:42:21;98138.59;;;19.42;53.29
53900;BME280;40509;32.858;-116.858;2023-03-15T03:44:48;98135.19;;;19.42;53.46
53900;BME280;40509;32.858;-116.858;2023-03-15T03:47:16;98142.22;;;19.41;53.69
53900;BME280;40509;32.858;-116.858;2023-03-15T03:49:44;98143.16;;;19.40;53.77
53900;BME280;40509;32.858;-116.858;2023-03-15T03:52:11;98148.41;;;19.40;53.82
53900;BME280;40509;32.858;-116.858;2023-03-15T03:54:39;98140.69;;;19.38;53.91
53900;BME280;40509;32.858;-116.858;2023-03-15T03:57:09;98139.84;;;19.38;54.14
53900;BME280;40509;32.858;-116.858;2023-03-15T03:59:38;98139.03;;;19.37;54.04
53900;BME280;40509;32.858;-116.858;2023-03-15T04:02:05;98140.78;;;19.37;54.17
53900;BME280;40509;32.858;-116.858;2023-03-15T04:04:34;98140.78;;;19.37;53.81
53900;BME280;40509;32.858;-116.858;2023-03-15T04:07:02;98145.22;;;19.36;53.66
53900;BME280;40509;32.858;-116.858;2023-03-15T04:09:34;98138.31;;;19.35;53.98
53900;BME280;40509;32.858;-116.858;2023-03-15T04:12:04;98137.50;;;19.35;54.08
53900;BME280;40509;32.858;-116.858;2023-03-15T04:14:33;98137.63;;;19.33;54.32
53900;BME280;40509;32.858;-116.858;2023-03-15T04:17:03;98134.06;;;19.34;53.90
53900;BME280;40509;32.858;-116.858;2023-03-15T04:19:31;98139.28;;;19.34;53.73
53900;BME280;40509;32.858;-116.858;2023-03-15T04:21:59;98144.53;;;19.34;54.31
53900;BME280;40509;32.858;-116.858;2023-03-15T04:24:52;98142.88;;;19.33;54.29
53900;BME280;40509;32.858;-116.858;2023-03-15T04:27:39;98145.34;;;19.35;53.81
53900;BME280;40509;32.858;-116.858;2023-03-15T04:30:06;98144.63;;;19.33;54.11
53900;BME280;40509;32.858;-116.858;2023-03-15T04:32:50;98151.66;;;19.32;53.84
53900;BME280;40509;32.858;-116.858;2023-03-15T04:35:38;98151.66;;;19.32;53.91
53900;BME280;40509;32.858;-116.858;2023-03-15T04:38:22;98152.63;;;19.31;54.35
53900;BME280;40509;32.858;-116.858;2023-03-15T04:41:07;98161.31;;;19.32;54.05
53900;BME280;40509;32.858;-116.858;2023-03-15T04:43:56;98150.13;;;19.30;54.44
53900;BME280;40509;32.858;-116.858;2023-03-15T04:46:56;98145.84;;;19.29;54.05
53900;BME280;40509;32.858;-116.858;2023-03-15T04:49:52;98154.56;;;19.29;54.25
53900;BME280;40509;32.858;-116.858;2023-03-15T04:52:39;98166.78;;;19.29;53.95
53900;BME280;40509;32.858;-116.858;2023-03-15T04:55:26;98159.94;;;19.28;54.15
53900;BME280;40509;32.858;-116.858;2023-03-15T04:58:14;98162.53;;;19.28;54.05
53900;BME280;40509;32.858;-116.858;2023-03-15T05:00:51;98170.41;;;19.28;54.18
53900;BME280;40509;32.858;-116.858;2023-03-15T05:03:36;98170.41;;;19.28;54.26
53900;BME280;40509;32.858;-116.858;2023-03-15T05:06:23;98173.97;;;19.27;53.89
53900;BME280;40509;32.858;-116.858;2023-03-15T05:09:14;98187.88;;;19.27;54.23
53900;BME280;40509;32.858;-116.858;2023-03-15T05:12:05;98187.19;;;19.25;54.13
53900;BME280;40509;32.858;-116.858;2023-03-15T05:14:46;98188.00;;;19.26;54.17
53900;BME280;40509;32.858;-116.858;2023-03-15T05:17:32;98197.66;;;19.25;54.04
53900;BME280;40509;32.858;-116.858;2023-03-15T05:20:20;98200.13;;;19.27;54.41
53900;BME280;40509;32.858;-116.858;2023-03-15T05:22:56;98194.63;;;19.30;54.26
53900;BME280;40509;32.858;-116.858;2023-03-15T05:25:42;98191.56;;;19.25;54.35
53900;BME280;40509;32.858;-116.858;2023-03-15T05:28:27;98190.47;;;19.27;54.17
53900;BME280;40509;32.858;-116.858;2023-03-15T05:31:24;98182.78;;;19.26;53.84
53900;BME280;40509;32.858;-116.858;2023-03-15T05:34:09;98164.59;;;19.24;53.82
53900;BME280;40509;32.858;-116.858;2023-03-15T05:37:01;98169.94;;;19.23;54.24
53900;BME280;40509;32.858;-116.858;2023-03-15T05:39:48;98174.34;;;19.22;53.69
53900;BME280;40509;32.858;-116.858;2023-03-15T05:42:34;98176.94;;;19.22;54.13
53900;BME280;40509;32.858;-116.858;2023-03-15T05:45:22;98187.41;;;19.22;54.01
53900;BME280;40509;32.858;-116.858;2023-03-15T05:48:19;98179.69;;;19.20;54.06
53900;BME280;40509;32.858;-116.858;2023-03-15T05:51:13;98185.06;;;19.19;54.09
53900;BME280;40509;32.858;-116.858;2023-03-15T05:53:57;98189.34;;;19.20;54.01
53900;BME280;40509;32.858;-116.858;2023-03-15T05:56:43;98191.25;;;19.18;53.59
53900;BME280;40509;32.858;-116.858;2023-03-15T05:59:33;98177.34;;;19.17;53.83
53900;BME280;40509;32.858;-116.858;2023-03-15T06:02:26;98175.56;;;19.18;54.21
53900;BME280;40509;32.858;-116.858;2023-03-15T06:05:15;98200.09;;;19.17;53.85
53900;BME280;40509;32.858;-116.858;2023-03-15T06:07:42;98191.53;;;19.15;53.90
53900;BME280;40509;32.858;-116.858;2023-03-15T06:10:10;98195.81;;;19.16;54.09
53900;BME280;40509;32.858;-116.858;2023-03-15T06:12:38;98186.28;;;19.15;53.92
53900;BME280;40509;32.858;-116.858;2023-03-15T06:15:07;98189.84;;;19.14;53.73
53900;BME280;40509;32.858;-116.858;2023-03-15T06:17:34;98199.50;;;19.13;54.12
53900;BME280;40509;32.858;-116.858;2023-03-15T06:20:02;98194.28;;;19.13;54.03
53900;BME280;40509;32.858;-116.858;2023-03-15T06:22:31;98189.31;;;19.10;54.03
53900;BME280;40509;32.858;-116.858;2023-03-15T06:25:06;98183.22;;;19.10;54.11
53900;BME280;40509;32.858;-116.858;2023-03-15T06:27:33;98180.47;;;19.11;54.04
53900;BME280;40509;32.858;-116.858;2023-03-15T06:30:01;98192.88;;;19.09;53.94
53900;BME280;40509;32.858;-116.858;2023-03-15T06:32:29;98187.63;;;19.09;54.04
53900;BME280;40509;32.858;-116.858;2023-03-15T06:34:57;98186.81;;;19.09;53.66
53900;BME280;40509;32.858;-116.858;2023-03-15T06:37:24;98193.13;;;19.06;54.25
53900;BME280;40509;32.858;-116.858;2023-03-15T06:39:51;98200.84;;;19.08;53.95
53900;BME280;40509;32.858;-116.858;2023-03-15T06:42:19;98201.69;;;19.08;53.73
53900;BME280;40509;32.858;-116.858;2023-03-15T06:44:47;98211.31;;;19.08;54.04
53900;BME280;40509;32.858;-116.858;2023-03-15T06:47:14;98210.38;;;19.09;54.00
53900;BME280;40509;32.858;-116.858;2023-03-15T06:49:42;98215.72;;;19.07;53.81
53900;BME280;40509;32.858;-116.858;2023-03-15T06:52:10;98220.25;;;19.05;53.85
53900;BME280;40509;32.858;-116.858;2023-03-15T06:54:38;98221.91;;;19.06;53.87
53900;BME280;40509;32.858;-116.858;2023-03-15T06:57:05;98212.41;;;19.05;54.09
53900;BME280;40509;32.858;-116.858;2023-03-15T06:59:33;98230.72;;;19.05;53.78
53900;BME280;40509;32.858;-116.858;2023-03-15T07:02:00;98237.75;;;19.04;53.74
53900;BME280;40509;32.858;-116.858;2023-03-15T07:04:28;98241.31;;;19.03;53.85
53900;BME280;40509;32.858;-116.858;2023-03-15T07:06:56;98223.94;;;19.02;53.92
53900;BME280;40509;32.858;-116.858;2023-03-15T07:09:24;98225.75;;;19.02;53.77
53900;BME280;40509;32.858;-116.858;2023-03-15T07:11:51;98223.13;;;19.02;53.70
53900;BME280;40509;32.858;-116.858;2023-03-15T07:14:18;98218.72;;;19.02;53.73
53900;BME280;40509;32.858;-116.858;2023-03-15T07:16:47;98220.53;;;19.02;53.86
53900;BME280;40509;32.858;-116.858;2023-03-15T07:19:14;98219.66;;;19.01;53.58
53900;BME280;40509;32.858;-116.858;2023-03-15T07:21:41;98216.22;;;19.01;53.64
53900;BME280;40509;32.858;-116.858;2023-03-15T07:24:09;98218.84;;;19.01;54.00
53900;BME280;40509;32.858;-116.858;2023-03-15T07:26:36;98216.09;;;19.02;53.80
53900;BME280;40509;32.858;-116.858;2023-03-15T07:29:03;98218.97;;;18.99;53.82
53900;BME280;40509;32.858;-116.858;2023-03-15T07:31:30;98225.88;;;19.00;53.70
53900;BME280;40509;32.858;-116.858;2023-03-15T07:33:58;98225.03;;;19.00;53.68
53900;BME280;40509;32.858;-116.858;2023-03-15T07:36:28;98223.25;;;19.00;53.63
53900;BME280;40509;32.858;-116.858;2023-03-15T07:38:55;98226.97;;;18.98;53.94
53900;BME280;40509;32.858;-116.858;2023-03-15T07:41:23;98230.25;;;19.00;53.50
53900;BME280;40509;32.858;-116.858;2023-03-15T07:43:57;98241.59;;;19.00;53.76
53900;BME280;40509;32.858;-116.858;2023-03-15T07:46:24;98242.53;;;18.99;53.44
53900;BME280;40509;32.858;-116.858;2023-03-15T07:48:52;98253.94;;;18.98;53.47
53900;BME280;40509;32.858;-116.858;2023-03-15T07:51:19;98248.72;;;18.98;53.71
53900;BME280;40509;32.858;-116.858;2023-03-15T07:53:47;98260.97;;;18.98;53.88
53900;BME280;40509;32.858;-116.858;2023-03-15T07:56:14;98252.41;;;18.96;53.73
53900;BME280;40509;32.858;-116.858;2023-03-15T07:58:41;98251.31;;;18.98;53.71
53900;BME280;40509;32.858;-116.858;2023-03-15T08:01:09;98246.22;;;18.97;53.84
53900;BME280;40509;32.858;-116.858;2023-03-15T08:03:36;98246.34;;;18.95;53.56
53900;BME280;40509;32.858;-116.858;2023-03-15T08:06:04;98237.66;;;18.95;53.87
53900;BME280;40509;32.858;-116.858;2023-03-15T08:08:32;98225.56;;;18.94;53.46
53900;BME280;40509;32.858;-116.858;2023-03-15T08:10:59;98218.53;;;18.94;53.52
53900;BME280;40509;32.858;-116.858;2023-03-15T08:13:26;98215.91;;;18.94;53.29
53900;BME280;40509;32.858;-116.858;2023-03-15T08:15:54;98206.53;;;18.92;53.37
53900;BME280;40509;32.858;-116.858;2023-03-15T08:18:21;98202.97;;;18.93;53.51
53900;BME280;40509;32.858;-116.858;2023-03-15T08:20:49;98202.97;;;18.93;53.41
53900;BME280;40509;32.858;-116.858;2023-03-15T08:23:16;98193.31;;;18.93;53.55
53900;BME280;40509;32.858;-116.858;2023-03-15T08:25:44;98189.16;;;18.91;53.64
53900;BME280;40509;32.858;-116.858;2023-03-15T08:28:11;98191.19;;;18.87;53.80
53900;BME280;40509;32.858;-116.858;2023-03-15T08:30:39;98173.00;;;18.85;53.67
53900;BME280;40509;32.858;-116.858;2023-03-15T08:33:06;98170.63;;;18.82;53.62
53900;BME280;40509;32.858;-116.858;2023-03-15T08:35:34;98172.31;;;18.83;53.89
53900;BME280;40509;32.858;-116.858;2023-03-15T08:38:01;98167.06;;;18.83;53.77
53900;BME280;40509;32.858;-116.858;2023-03-15T08:40:29;98166.34;;;18.81;53.92
53900;BME280;40509;32.858;-116.858;2023-03-15T08:42:58;98159.63;;;18.79;53.53
53900;BME280;40509;32.858;-116.858;2023-03-15T08:45:25;98151.50;;;18.82;53.77
53900;BME280;40509;32.858;-116.858;2023-03-15T08:47:59;98153.28;;;18.81;53.75
53900;BME280;40509;32.858;-116.858;2023-03-15T08:50:27;98148.91;;;18.82;53.54
53900;BME280;40509;32.858;-116.858;2023-03-15T08:52:57;98152.59;;;18.79;53.59
53900;BME280;40509;32.858;-116.858;2023-03-15T08:55:25;98149.16;;;18.79;53.65
53900;BME280;40509;32.858;-116.858;2023-03-15T08:57:52;98147.50;;;18.78;53.88
53900;BME280;40509;32.858;-116.858;2023-03-15T09:00:19;98136.63;;;18.82;53.68
53900;BME280;40509;32.858;-116.858;2023-03-15T09:02:49;98128.59;;;18.74;53.82
53900;BME280;40509;32.858;-116.858;2023-03-15T09:05:18;98134.56;;;18.76;53.52
53900;BME280;40509;32.858;-116.858;2023-03-15T09:07:46;98128.59;;;18.74;53.49
53900;BME280;40509;32.858;-116.858;2023-03-15T09:10:16;98120.63;;;18.76;53.50
53900;BME280;40509;32.858;-116.858;2023-03-15T09:12:46;98120.75;;;18.74;53.86
53900;BME280;40509;32.858;-116.858;2023-03-15T09:15:14;98111.03;;;18.76;53.74
53900;BME280;40509;32.858;-116.858;2023-03-15T09:17:43;98115.41;;;18.76;53.60
53900;BME280;40509;32.858;-116.858;2023-03-15T09:20:12;98108.63;;;18.73;53.55
53900;BME280;40509;32.858;-116.858;2023-03-15T09:22:50;98106.75;;;18.75;53.69
53900;BME280;40509;32.858;-116.858;2023-03-15T09:25:18;98096.78;;;18.69;53.71
53900;BME280;40509;32.858;-116.858;2023-03-15T09:27:46;98081.22;;;18.67;53.47
53900;BME280;40509;32.858;-116.858;2023-03-15T09:30:13;98072.44;;;18.68;53.65
53900;BME280;40509;32.858;-116.858;2023-03-15T09:32:41;98069.00;;;18.68;53.52
53900;BME280;40509;32.858;-116.858;2023-03-15T09:35:13;98075.44;;;18.64;53.65
53900;BME280;40509;32.858;-116.858;2023-03-15T09:37:41;98085.63;;;18.67;53.83
53900;BME280;40509;32.858;-116.858;2023-03-15T09:40:37;98082.31;;;18.65;53.88
53900;BME280;40509;32.858;-116.858;2023-03-15T09:48:18;98075.53;;;18.62;53.59
53900;BME280;40509;32.858;-116.858;2023-03-15T09:50:56;98073.78;;;18.63;53.73
53900;BME280;40509;32.858;-116.858;2023-03-15T09:53:34;98062.88;;;18.58;53.68
53900;BME280;40509;32.858;-116.858;2023-03-15T09:58:41;98040.03;;;18.60;53.67
53900;BME280;40509;32.858;-116.858;2023-03-15T10:01:12;98033.16;;;18.59;53.52
53900;BME280;40509;32.858;-116.858;2023-03-15T10:03:46;98022.94;;;18.56;53.40
53900;BME280;40509;32.858;-116.858;2023-03-15T10:06:29;98019.13;;;18.60;53.75
53900;BME280;40509;32.858;-116.858;2023-03-15T10:09:11;98013.34;;;18.56;53.76
53900;BME280;40509;32.858;-116.858;2023-03-15T10:12:07;98000.00;;;18.59;53.81
53900;BME280;40509;32.858;-116.858;2023-03-15T10:17:23;98002.88;;;18.56;53.61
53900;BME280;40509;32.858;-116.858;2023-03-15T10:20:05;97994.91;;;18.58;53.73
53900;BME280;40509;32.858;-116.858;2023-03-15T10:22:46;97984.13;;;18.51;53.53
53900;BME280;40509;32.858;-116.858;2023-03-15T10:25:27;97987.34;;;18.54;53.72
53900;BME280;40509;32.858;-116.858;2023-03-15T10:28:01;97982.66;;;18.58;53.77
53900;BME280;40509;32.858;-116.858;2023-03-15T10:30:32;97988.00;;;18.57;53.83
53900;BME280;40509;32.858;-116.858;2023-03-15T10:35:31;97991.03;;;18.52;53.82
53900;BME280;40509;32.858;-116.858;2023-03-15T10:37:59;97966.66;;;18.51;53.67
53900;BME280;40509;32.858;-116.858;2023-03-15T10:40:58;97973.69;;;18.51;53.61
53900;BME280;40509;32.858;-116.858;2023-03-15T10:43:28;97981.38;;;18.52;53.42
53900;BME280;40509;32.858;-116.858;2023-03-15T10:46:03;97991.84;;;18.52;53.54
53900;BME280;40509;32.858;-116.858;2023-03-15T10:48:38;97978.91;;;18.51;53.49
53900;BME280;40509;32.858;-116.858;2023-03-15T10:51:25;97965.03;;;18.50;53.78
53900;BME280;40509;32.858;-116.858;2023-03-15T10:53:59;97963.34;;;18.49;53.67
53900;BME280;40509;32.858;-116.858;2023-03-15T10:56:31;97975.72;;;18.47;54.13
53900;BME280;40509;32.858;-116.858;2023-03-15T10:59:01;97972.28;;;18.47;53.75
53900;BME280;40509;32.858;-116.858;2023-03-15T11:01:30;97961.13;;;18.45;53.89
53900;BME280;40509;32.858;-116.858;2023-03-15T11:04:13;97949.56;;;18.47;53.53
53900;BME280;40509;32.858;-116.858;2023-03-15T11:09:17;97938.72;;;18.42;53.89
53900;BME280;40509;32.858;-116.858;2023-03-15T11:14:24;97931.56;;;18.44;53.57
53900;BME280;40509;32.858;-116.858;2023-03-15T11:16:54;97926.47;;;18.43;53.92
53900;BME280;40509;32.858;-116.858;2023-03-15T11:19:26;97927.16;;;18.45;53.84
53900;BME280;40509;32.858;-116.858;2023-03-15T11:21:55;97927.41;;;18.42;53.71
53900;BME280;40509;32.858;-116.858;2023-03-15T11:24:26;97908.97;;;18.43;53.79
53900;BME280;40509;32.858;-116.858;2023-03-15T11:26:57;97896.91;;;18.42;53.99
53900;BME280;40509;32.858;-116.858;2023-03-15T11:29:34;97893.31;;;18.43;53.79
53900;BME280;40509;32.858;-116.858;2023-03-15T11:32:14;97889.59;;;18.46;53.57
53900;BME280;40509;32.858;-116.858;2023-03-15T11:40:29;97868.00;;;18.44;53.66
53900;BME280;40509;32.858;-116.858;2023-03-15T11:43:20;97857.69;;;18.42;53.66
53900;BME280;40509;32.858;-116.858;2023-03-15T11:49:00;97871.56;;;18.43;53.70
53900;BME280;40509;32.858;-116.858;2023-03-15T11:51:32;97872.25;;;18.45;53.41
53900;BME280;40509;32.858;-116.858;2023-03-15T11:54:13;97869.09;;;18.41;53.29
53900;BME280;40509;32.858;-116.858;2023-03-15T11:57:01;97876.00;;;18.42;53.45
53900;BME280;40509;32.858;-116.858;2023-03-15T11:59:36;97879.81;;;18.38;53.56
53900;BME280;40509;32.858;-116.858;2023-03-15T12:04:43;97871.28;;;18.36;53.63
53900;BME280;40509;32.858;-116.858;2023-03-15T12:17:52;97858.22;;;18.36;53.79
53900;BME280;40509;32.858;-116.858;2023-03-15T12:25:56;97872.66;;;18.40;53.52
53900;BME280;40509;32.858;-116.858;2023-03-15T12:28:30;97880.78;;;18.37;53.49
53900;BME280;40509;32.858;-116.858;2023-03-15T12:31:03;97893.00;;;18.36;53.60
53900;BME280;40509;32.858;-116.858;2023-03-15T12:33:42;97886.97;;;18.36;53.55
53900;BME280;40509;32.858;-116.858;2023-03-15T12:36:38;97885.28;;;18.35;53.28
53900;BME280;40509;32.858;-116.858;2023-03-15T12:41:42;97898.38;;;18.35;53.57
53900;BME280;40509;32.858;-116.858;2023-03-15T12:57:27;97934.50;;;18.30;53.44
53900;BME280;40509;32.858;-116.858;2023-03-15T13:02:30;97939.03;;;18.28;53.20
53900;BME280;40509;32.858;-116.858;2023-03-15T13:05:31;97946.25;;;18.35;52.92
53900;BME280;40509;32.858;-116.858;2023-03-15T13:14:04;97931.06;;;18.29;53.37
53900;BME280;40509;32.858;-116.858;2023-03-15T13:16:44;97940.84;;;18.27;53.62
53900;BME280;40509;32.858;-116.858;2023-03-15T13:19:31;97934.50;;;18.30;53.39
53900;BME280;40509;32.858;-116.858;2023-03-15T13:23:02;97938.66;;;18.32;53.38
53900;BME280;40509;32.858;-116.858;2023-03-15T13:25:24;97936.44;;;18.28;53.79
53900;BME280;40509;32.858;-116.858;2023-03-15T13:28:08;97933.81;;;18.28;53.53
53900;BME280;40509;32.858;-116.858;2023-03-15T13:30:46;97947.47;;;18.31;53.42
53900;BME280;40509;32.858;-116.858;2023-03-15T13:33:23;97954.31;;;18.32;53.53
53900;BME280;40509;32.858;-116.858;2023-03-15T13:41:15;97961.97;;;18.24;53.72
53900;BME280;40509;32.858;-116.858;2023-03-15T13:43:43;97966.13;;;18.27;53.55
53900;BME280;40509;32.858;-116.858;2023-03-15T13:46:11;97968.06;;;18.25;53.42
53900;BME280;40509;32.858;-116.858;2023-03-15T13:48:42;97977.53;;;18.26;53.15
53900;BME280;40509;32.858;-116.858;2023-03-15T13:51:30;97983.88;;;18.23;53.37
53900;BME280;40509;32.858;-116.858;2023-03-15T13:54:10;97979.47;;;18.24;53.26
53900;BME280;40509;32.858;-116.858;2023-03-15T13:57:18;97984.94;;;18.20;53.11
53900;BME280;40509;32.858;-116.858;2023-03-15T13:59:56;97987.56;;;18.20;53.28
53900;BME280;40509;32.858;-116.858;2023-03-15T14:05:03;97993.34;;;18.24;52.98
53900;BME280;40509;32.858;-116.858;2023-03-15T14:07:40;97991.94;;;18.20;53.24
53900;BME280;40509;32.858;-116.858;2023-03-15T14:12:50;97995.25;;;18.22;53.45
53900;BME280;40509;32.858;-116.858;2023-03-15T14:15:23;97982.06;;;18.24;53.41
53900;BME280;40509;32.858;-116.858;2023-03-15T14:18:00;97970.28;;;18.29;53.03
53900;BME280;40509;32.858;-116.858;2023-03-15T14:20:39;97976.56;;;18.27;53.25
53900;BME280;40509;32.858;-116.858;2023-03-15T14:23:26;97971.34;;;18.27;53.19